createdAt,value
2023-01-03T00:01:43.933Z,26.83
2023-01-03T00:04:13.456Z,34.23
2023-01-03T00:06:45.270Z,29.70
2023-01-03T00:09:16.477Z,32.83
2023-01-03T00:12:04.946Z,44.60
2023-01-03T00:14:36.608Z,35.50
2023-01-03T00:17:08.390Z,33.90
2023-01-03T00:19:38.777Z,30.43
2023-01-03T00:22:08.345Z,29.03
2023-01-03T00:24:37.455Z,19.40
2023-01-03T00:27:06.511Z,28.10
2023-01-03T00:29:35.469Z,31.17
2023-01-03T00:32:04.540Z,40.43
2023-01-03T00:34:35.460Z,26.93
2023-01-03T00:37:04.448Z,36.10
2023-01-03T00:39:33.210Z,30.57
2023-01-03T00:42:02.466Z,29.03
2023-01-03T00:44:31.347Z,28.57
2023-01-03T00:47:02.923Z,34.60
2023-01-03T00:49:32.153Z,25.70
2023-01-03T00:52:02.366Z,29.77
2023-01-03T00:54:31.339Z,26.90
2023-01-03T00:57:00.216Z,33.60
2023-01-03T00:59:29.070Z,25.93
2023-01-03T01:01:58.703Z,31.53
2023-01-03T01:04:29.621Z,27.10
2023-01-03T01:07:00.906Z,32.13
2023-01-03T01:09:33.518Z,25.67
2023-01-03T01:12:04.152Z,22.27
2023-01-03T01:14:33.845Z,31.63
2023-01-03T01:17:05.184Z,32.70
2023-01-03T01:19:35.706Z,33.37
2023-01-03T01:22:04.875Z,39.30
2023-01-03T01:24:35.560Z,26.57
2023-01-03T01:27:04.796Z,30.27
2023-01-03T01:29:33.687Z,24.87
2023-01-03T01:32:03.291Z,31.63
2023-01-03T01:34:32.531Z,29.50
2023-01-03T01:37:01.474Z,32.00
2023-01-03T01:39:31.220Z,30.20
2023-01-03T01:42:21.669Z,30.70
2023-01-03T01:44:56.097Z,32.33
2023-01-03T01:47:37.184Z,31.00
2023-01-03T01:50:16.180Z,36.67
2023-01-03T01:52:49.295Z,40.00
2023-01-03T01:55:24.167Z,42.00
2023-01-03T01:57:55.856Z,30.87
2023-01-03T02:00:25.015Z,34.23
2023-01-03T02:02:55.457Z,27.23
2023-01-03T02:05:35.905Z,27.57
2023-01-03T02:08:05.215Z,23.67
2023-01-03T02:10:51.463Z,24.20
2023-01-03T02:13:32.429Z,32.03
2023-01-03T02:16:21.842Z,26.87
2023-01-03T02:19:04.208Z,25.50
2023-01-03T02:22:07.921Z,31.03
2023-01-03T02:25:39.870Z,34.83
2023-01-03T02:28:44.304Z,36.77
2023-01-03T02:31:25.085Z,35.27
2023-01-03T02:34:01.362Z,34.03
2023-01-03T02:36:41.336Z,27.20
2023-01-03T02:39:21.933Z,30.83
2023-01-03T02:42:18.297Z,30.57
2023-01-03T02:44:55.857Z,34.17
2023-01-03T02:47:29.509Z,31.77
2023-01-03T02:50:05.238Z,30.53
2023-01-03T02:52:34.444Z,26.70
2023-01-03T02:55:07.356Z,32.60
2023-01-03T02:57:41.410Z,23.10
2023-01-03T03:00:13.072Z,40.97
2023-01-03T03:02:51.882Z,28.27
2023-01-03T03:05:25.948Z,29.87
2023-01-03T03:07:54.697Z,22.33
2023-01-03T03:10:41.884Z,26.37
2023-01-03T03:13:17.340Z,41.37
2023-01-03T03:15:51.324Z,23.13
2023-01-03T03:18:26.704Z,28.87
2023-01-03T03:21:16.208Z,36.40
2023-01-03T03:24:04.179Z,29.70
2023-01-03T03:26:43.602Z,26.87
2023-01-03T03:29:15.375Z,104.40
2023-01-03T03:31:47.737Z,46.10
2023-01-03T03:34:20.917Z,78.60
2023-01-03T03:36:56.364Z,101.43
2023-01-03T03:39:43.378Z,75.93
2023-01-03T03:42:39.768Z,112.60
2023-01-03T03:45:17.354Z,63.27
2023-01-03T03:47:52.457Z,79.40
2023-01-03T03:50:26.719Z,130.03
2023-01-03T03:53:00.905Z,114.23
2023-01-03T03:55:35.063Z,123.80
2023-01-03T03:58:08.901Z,85.47
2023-01-03T04:00:40.886Z,154.43
2023-01-03T04:03:11.966Z,87.43
2023-01-03T04:05:45.768Z,128.33
2023-01-03T04:08:14.445Z,120.13
2023-01-03T04:10:43.727Z,137.00
2023-01-03T04:13:12.579Z,121.73
2023-01-03T04:15:41.390Z,81.57
2023-01-03T04:18:10.105Z,60.77
2023-01-03T04:20:38.907Z,53.90
2023-01-03T04:23:08.950Z,56.03
2023-01-03T04:25:37.617Z,54.90
2023-01-03T04:28:06.732Z,54.37
2023-01-03T04:30:35.479Z,55.20
2023-01-03T04:33:05.515Z,52.27
2023-01-03T04:35:34.642Z,39.07
2023-01-03T04:38:03.610Z,43.77
2023-01-03T04:40:35.491Z,54.00
2023-01-03T04:43:22.053Z,46.47
2023-01-03T04:45:51.331Z,59.97
2023-01-03T04:48:20.086Z,52.63
2023-01-03T04:50:53.560Z,49.93
2023-01-03T04:53:23.168Z,62.80
2023-01-03T04:55:56.763Z,43.53
2023-01-03T04:58:25.740Z,46.87
2023-01-03T05:01:00.509Z,43.60
2023-01-03T05:03:29.773Z,46.03
2023-01-03T05:06:02.079Z,45.43
2023-01-03T05:08:31.128Z,47.03
2023-01-03T05:11:01.250Z,45.53
2023-01-03T05:13:30.144Z,50.47
2023-01-03T05:16:04.571Z,46.67
2023-01-03T05:18:33.431Z,35.17
2023-01-03T05:21:24.434Z,40.53
2023-01-03T05:24:10.513Z,45.33
2023-01-03T05:26:42.686Z,50.47
2023-01-03T05:29:12.550Z,60.23
2023-01-03T05:31:41.537Z,40.97
2023-01-03T05:34:10.287Z,50.97
2023-01-03T05:36:39.028Z,49.83
2023-01-03T05:39:08.355Z,49.33
2023-01-03T05:41:54.576Z,60.03
2023-01-03T05:44:24.967Z,53.83
2023-01-03T05:46:54.662Z,63.70
2023-01-03T05:49:23.393Z,52.97
2023-01-03T05:51:52.234Z,58.37
2023-01-03T05:54:21.575Z,58.50
2023-01-03T05:56:51.331Z,63.80
2023-01-03T05:59:21.179Z,57.10
2023-01-03T06:01:51.744Z,49.33
2023-01-03T06:04:20.849Z,58.67
2023-01-03T06:06:49.610Z,63.63
2023-01-03T06:09:18.546Z,44.07
2023-01-03T06:11:47.173Z,52.57
2023-01-03T06:14:15.910Z,57.53
2023-01-03T06:17:02.019Z,53.90
2023-01-03T06:19:32.490Z,39.90
2023-01-03T06:22:05.567Z,48.50
2023-01-03T06:24:38.883Z,47.17
2023-01-03T06:27:07.825Z,46.60
2023-01-03T06:29:36.581Z,54.83
2023-01-03T06:32:09.496Z,45.50
2023-01-03T06:34:40.173Z,38.53
2023-01-03T06:37:09.431Z,65.10
2023-01-03T06:39:38.096Z,42.20
2023-01-03T06:42:20.847Z,46.63
2023-01-03T06:45:09.527Z,36.10
2023-01-03T06:47:56.489Z,49.03
2023-01-03T06:50:43.878Z,44.73
2023-01-03T06:53:16.355Z,50.37
2023-01-03T06:55:51.303Z,49.40
2023-01-03T06:58:25.011Z,51.40
2023-01-03T07:00:55.639Z,39.53
2023-01-03T07:03:25.043Z,59.40
2023-01-03T07:05:55.155Z,43.73
2023-01-03T07:08:23.977Z,42.57
2023-01-03T07:10:52.817Z,54.70
2023-01-03T07:13:38.826Z,66.07
2023-01-03T07:16:08.062Z,41.17
2023-01-03T07:18:36.837Z,57.20
2023-01-03T07:21:09.194Z,47.93
2023-01-03T07:23:37.940Z,49.07
2023-01-03T07:26:06.967Z,49.93
2023-01-03T07:28:35.646Z,56.13
2023-01-03T07:31:07.768Z,49.00
2023-01-03T07:33:38.970Z,38.10
2023-01-03T07:36:12.112Z,45.23
2023-01-03T07:38:42.634Z,51.63
2023-01-03T07:41:12.452Z,54.83
2023-01-03T07:43:42.525Z,50.27
2023-01-03T07:46:14.347Z,42.37
2023-01-03T07:48:43.872Z,57.73
2023-01-03T07:51:15.848Z,58.97
2023-01-03T07:53:44.920Z,60.20
2023-01-03T07:56:15.903Z,50.57
2023-01-03T07:58:45.743Z,115.60
2023-01-03T08:01:16.825Z,141.37
2023-01-03T08:03:46.247Z,86.80
2023-01-03T08:06:18.457Z,79.87
2023-01-03T08:09:08.975Z,123.87
2023-01-03T08:11:55.258Z,95.83
2023-01-03T08:14:26.543Z,87.00
2023-01-03T08:16:56.267Z,70.10
2023-01-03T08:19:25.645Z,64.50
2023-01-03T08:21:55.760Z,50.17
2023-01-03T08:24:24.468Z,55.83
2023-01-03T08:26:53.164Z,47.50
2023-01-03T08:29:21.780Z,49.87
2023-01-03T08:31:55.676Z,60.63
2023-01-03T08:34:30.022Z,48.27
2023-01-03T08:37:05.139Z,45.00
2023-01-03T08:39:38.389Z,41.60
2023-01-03T08:42:09.670Z,45.80
2023-01-03T08:44:39.835Z,40.93
2023-01-03T08:47:10.316Z,39.43
2023-01-03T08:49:40.345Z,38.73
2023-01-03T08:52:10.428Z,40.50
2023-01-03T08:54:39.470Z,37.23
2023-01-03T08:57:08.303Z,40.47
2023-01-03T08:59:36.919Z,40.67
2023-01-03T09:02:05.705Z,41.10
2023-01-03T09:04:34.446Z,37.57
2023-01-03T09:07:03.073Z,42.90
2023-01-03T09:09:33.089Z,38.43
2023-01-03T09:12:02.052Z,41.37
2023-01-03T09:14:31.905Z,36.83
2023-01-03T09:17:03.041Z,39.60
2023-01-03T09:19:34.687Z,38.73
2023-01-03T09:22:03.856Z,32.50
2023-01-03T09:24:34.024Z,33.23
2023-01-03T09:27:02.737Z,33.93
2023-01-03T09:29:31.615Z,31.90
2023-01-03T09:32:03.552Z,44.53
2023-01-03T09:34:35.106Z,39.47
2023-01-03T09:37:04.576Z,35.27
2023-01-03T09:39:35.063Z,45.50
2023-01-03T09:42:23.089Z,23.33
2023-01-03T09:44:52.130Z,30.17
2023-01-03T09:47:24.843Z,37.87
2023-01-03T09:53:04.015Z,35.77
2023-01-03T09:55:59.952Z,29.13
2023-01-03T09:58:46.491Z,33.53
2023-01-03T10:01:51.810Z,39.63
2023-01-03T10:04:50.968Z,28.87
2023-01-03T10:07:40.974Z,36.33
2023-01-03T10:10:18.554Z,30.13
2023-01-03T10:12:59.764Z,36.80
2023-01-03T10:15:37.689Z,32.63
2023-01-03T10:18:16.691Z,32.03
2023-01-03T10:20:49.982Z,33.47
2023-01-03T10:23:20.209Z,38.77
2023-01-03T10:25:49.827Z,35.60
2023-01-03T10:28:23.205Z,34.27
2023-01-03T10:31:08.596Z,33.47
2023-01-03T10:33:40.774Z,38.37
2023-01-03T10:36:10.131Z,29.60
2023-01-03T10:38:46.479Z,41.97
2023-01-03T10:41:24.703Z,35.90
2023-01-03T10:44:02.183Z,38.80
2023-01-03T10:46:31.710Z,30.33
2023-01-03T10:49:31.616Z,29.87
2023-01-03T10:52:03.369Z,32.77
2023-01-03T10:54:45.644Z,29.17
2023-01-03T10:57:36.338Z,32.73
2023-01-03T11:00:30.121Z,38.33
2023-01-03T11:03:14.569Z,32.73
2023-01-03T11:05:45.745Z,37.23
2023-01-03T11:08:21.303Z,38.93
2023-01-03T11:10:58.386Z,30.80
2023-01-03T11:13:33.984Z,28.67
2023-01-03T11:16:13.543Z,32.07
2023-01-03T11:18:43.841Z,32.50
2023-01-03T11:21:18.265Z,29.83
2023-01-03T11:24:09.277Z,33.87
2023-01-03T11:26:47.994Z,26.57
2023-01-03T11:29:30.816Z,34.27
2023-01-03T11:32:17.743Z,23.23
2023-01-03T11:35:25.220Z,30.67
2023-01-03T11:38:04.318Z,26.40
2023-01-03T11:40:49.608Z,32.37
2023-01-03T11:43:34.636Z,35.07
2023-01-03T11:46:27.056Z,27.00
2023-01-03T11:49:19.836Z,31.70
2023-01-03T11:51:58.370Z,24.73
2023-01-03T11:54:49.312Z,26.50
2023-01-03T11:57:33.267Z,24.53
2023-01-03T12:00:12.474Z,21.97
2023-01-03T12:03:03.221Z,20.40
2023-01-03T12:05:55.608Z,29.70
2023-01-03T12:08:45.390Z,21.23
2023-01-03T12:11:35.629Z,33.47
2023-01-03T12:14:12.261Z,23.73
2023-01-03T12:16:45.054Z,31.63
2023-01-03T12:19:27.139Z,22.53
2023-01-03T12:22:01.974Z,20.57
2023-01-03T12:24:36.288Z,22.10
2023-01-03T12:27:15.707Z,22.77
2023-01-03T12:29:52.831Z,26.83
2023-01-03T12:32:29.868Z,30.67
2023-01-03T12:35:16.443Z,30.20
2023-01-03T12:37:51.083Z,24.57
2023-01-03T12:40:25.589Z,25.67
2023-01-03T12:43:02.053Z,32.23
2023-01-03T12:45:42.168Z,23.97
2023-01-03T12:48:25.697Z,20.37
2023-01-03T12:50:55.463Z,20.93
2023-01-03T12:53:31.890Z,25.30
2023-01-03T12:56:28.943Z,21.27
2023-01-03T12:59:09.041Z,19.97
2023-01-03T13:01:41.867Z,25.27
2023-01-03T13:04:22.969Z,19.90
2023-01-03T13:06:58.042Z,21.97
2023-01-03T13:09:32.306Z,29.73
2023-01-03T13:12:06.757Z,20.53
2023-01-03T13:14:53.401Z,25.77
2023-01-03T13:17:23.525Z,24.87
2023-01-03T13:19:57.381Z,21.33
2023-01-03T13:22:52.001Z,20.93
2023-01-03T13:25:42.304Z,26.93
2023-01-03T13:28:35.577Z,23.67
2023-01-03T13:31:39.649Z,21.87
2023-01-03T13:34:34.595Z,26.03
2023-01-03T13:37:27.437Z,23.93
2023-01-03T13:40:19.331Z,21.80
2023-01-03T13:42:50.480Z,21.17
2023-01-03T13:45:51.695Z,27.03
2023-01-03T13:48:31.869Z,19.37
2023-01-03T13:51:19.579Z,23.17
2023-01-03T13:53:55.344Z,22.77
2023-01-03T13:56:27.185Z,21.73
2023-01-03T13:59:03.470Z,21.67
2023-01-03T14:01:48.923Z,20.20
2023-01-03T14:05:05.732Z,18.33
2023-01-03T14:08:07.779Z,23.47
2023-01-03T14:11:05.924Z,21.53
2023-01-03T14:13:39.758Z,29.80
2023-01-03T14:16:23.000Z,27.30
2023-01-03T14:19:02.289Z,27.17
2023-01-03T14:21:42.668Z,29.53
2023-01-03T14:24:19.652Z,19.27
2023-01-03T14:26:48.401Z,25.40
2023-01-03T14:29:20.806Z,23.40
2023-01-03T14:31:53.481Z,22.33
2023-01-03T14:34:30.122Z,21.13
2023-01-03T14:37:06.936Z,21.97
2023-01-03T14:42:04.991Z,16.77
2023-01-03T14:44:34.304Z,17.20
2023-01-03T14:47:08.540Z,16.57
2023-01-03T14:49:43.848Z,19.77
2023-01-03T14:52:19.460Z,21.77
2023-01-03T14:54:50.679Z,23.33
2023-01-03T14:57:21.841Z,19.50
2023-01-03T14:59:51.530Z,19.83
2023-01-03T15:02:22.564Z,20.70
2023-01-03T15:04:53.558Z,21.20
2023-01-03T15:07:32.061Z,18.80
2023-01-03T15:10:07.373Z,28.20
2023-01-03T15:12:39.943Z,25.93
2023-01-03T15:15:17.887Z,19.27
2023-01-03T15:17:48.942Z,26.70
2023-01-03T15:20:21.682Z,30.67
2023-01-03T15:22:50.693Z,22.17
2023-01-03T15:25:22.110Z,23.60
2023-01-03T15:27:51.897Z,25.97
2023-01-03T15:30:26.910Z,18.83
2023-01-03T15:33:02.880Z,17.37
2023-01-03T15:35:37.057Z,22.87
2023-01-03T15:38:14.041Z,19.80
2023-01-03T15:40:43.007Z,30.80
2023-01-03T15:43:22.070Z,20.20
2023-01-03T15:45:59.985Z,20.27
2023-01-03T15:48:31.460Z,18.20
2023-01-03T15:51:00.272Z,14.67
2023-01-03T15:53:30.808Z,15.73
2023-01-03T15:56:02.768Z,18.63
2023-01-03T15:58:32.281Z,24.70
2023-01-03T16:01:01.922Z,22.60
2023-01-03T16:03:34.103Z,16.70
2023-01-03T16:06:03.212Z,30.47
2023-01-03T16:08:35.410Z,15.37
2023-01-03T16:11:06.964Z,23.40
2023-01-03T16:13:39.994Z,19.70
2023-01-03T16:16:09.753Z,25.83
2023-01-03T16:18:44.706Z,24.10
2023-01-03T16:21:14.706Z,24.00
2023-01-03T16:23:43.416Z,26.13
2023-01-03T16:26:12.144Z,27.33
2023-01-03T16:28:40.825Z,27.03
2023-01-03T16:31:15.770Z,14.63
2023-01-03T16:33:48.380Z,15.57
2023-01-03T16:36:27.885Z,23.47
2023-01-03T16:38:56.690Z,19.77
2023-01-03T16:41:25.394Z,19.57
2023-01-03T16:43:54.491Z,20.80
2023-01-03T16:46:25.513Z,11.23
2023-01-03T16:48:57.967Z,21.77
2023-01-03T16:51:29.721Z,25.17
2023-01-03T16:54:00.736Z,20.13
2023-01-03T16:56:29.570Z,16.40
2023-01-03T16:58:58.267Z,16.33
2023-01-03T17:01:27.019Z,21.50
2023-01-03T17:03:57.242Z,17.63
2023-01-03T17:06:37.552Z,19.20
2023-01-03T17:09:12.737Z,23.40
2023-01-03T17:11:41.423Z,16.93
2023-01-03T17:14:17.633Z,22.80
2023-01-03T17:16:46.901Z,23.90
2023-01-03T17:20:00.341Z,19.23
2023-01-03T17:22:14.385Z,20.47
2023-01-03T17:24:43.956Z,20.33
2023-01-03T17:27:18.579Z,13.97
2023-01-03T17:29:48.411Z,22.73
2023-01-03T17:32:20.238Z,13.83
2023-01-03T17:34:50.376Z,22.00
2023-01-03T17:37:21.198Z,21.73
2023-01-03T17:39:55.103Z,17.53
2023-01-03T17:42:24.654Z,16.43
2023-01-03T17:45:11.498Z,18.33
2023-01-03T17:48:01.153Z,27.20
2023-01-03T17:50:33.129Z,13.70
2023-01-03T17:53:03.007Z,13.57
2023-01-03T17:55:32.483Z,18.33
2023-01-03T17:58:05.444Z,16.43
2023-01-03T18:00:34.379Z,12.53
2023-01-03T18:03:03.419Z,13.47
2023-01-03T18:05:33.730Z,21.03
2023-01-03T18:08:05.115Z,13.10
2023-01-03T18:10:43.802Z,23.97
2023-01-03T18:13:24.215Z,16.60
2023-01-03T18:15:53.777Z,16.37
2023-01-03T18:18:25.270Z,22.43
2023-01-03T18:20:56.157Z,31.20
2023-01-03T18:23:29.185Z,15.07
2023-01-03T18:26:00.580Z,20.73
2023-01-03T18:28:33.336Z,12.40
2023-01-03T18:31:06.169Z,25.13
2023-01-03T18:33:35.100Z,18.93
2023-01-03T18:36:06.212Z,11.20
2023-01-03T18:38:41.133Z,14.93
2023-01-03T18:41:19.063Z,17.23
2023-01-03T18:43:47.829Z,24.83
2023-01-03T18:46:16.942Z,24.60
2023-01-03T18:48:45.799Z,28.20
2023-01-03T18:51:17.786Z,12.37
2023-01-03T18:53:49.634Z,19.07
2023-01-03T18:56:30.539Z,12.73
2023-01-03T18:59:02.683Z,20.00
2023-01-03T19:01:32.226Z,12.67
2023-01-03T19:04:01.618Z,15.93
2023-01-03T19:06:33.721Z,8.60
2023-01-03T19:09:04.955Z,14.80
2023-01-03T19:11:37.015Z,9.13
2023-01-03T19:14:05.821Z,15.03
2023-01-03T19:16:37.361Z,13.47
2023-01-03T19:19:08.081Z,13.90
2023-01-03T19:21:41.082Z,15.97
2023-01-03T19:24:24.632Z,10.73
2023-01-03T19:26:56.010Z,14.57
2023-01-03T19:29:28.390Z,11.77
2023-01-03T19:31:58.171Z,15.23
2023-01-03T19:34:28.916Z,12.17
2023-01-03T19:36:59.642Z,15.07
2023-01-03T19:39:32.237Z,14.43
2023-01-03T19:42:24.470Z,22.40
2023-01-03T19:44:55.247Z,15.17
2023-01-03T19:47:24.021Z,18.13
2023-01-03T19:49:52.704Z,17.40
2023-01-03T19:52:22.761Z,12.03
2023-01-03T19:54:51.515Z,17.23
2023-01-03T19:57:24.594Z,13.43
2023-01-03T19:59:56.218Z,16.40
2023-01-03T20:02:39.457Z,13.37
2023-01-03T20:05:15.597Z,19.33
2023-01-03T20:07:46.566Z,23.97
2023-01-03T20:10:17.589Z,17.13
2023-01-03T20:12:47.445Z,23.87
2023-01-03T20:15:23.273Z,15.60
2023-01-03T20:17:52.930Z,15.63
2023-01-03T20:20:23.119Z,17.87
2023-01-03T20:23:05.747Z,14.50
2023-01-03T20:25:37.149Z,9.50
2023-01-03T20:28:07.261Z,12.57
2023-01-03T20:30:36.546Z,15.17
2023-01-03T20:33:05.353Z,24.47
2023-01-03T20:36:09.858Z,16.73
2023-01-03T20:38:28.230Z,10.67
2023-01-03T20:40:57.642Z,18.50
2023-01-03T20:43:27.077Z,12.70
2023-01-03T20:45:57.745Z,12.33
2023-01-03T20:48:27.017Z,12.40
2023-01-03T20:50:56.137Z,24.13
2023-01-03T20:53:27.510Z,15.97
2023-01-03T20:55:56.353Z,16.57
2023-01-03T20:58:26.470Z,19.70
2023-01-03T21:01:04.266Z,14.40
2023-01-03T21:03:35.207Z,13.57
2023-01-03T21:06:04.905Z,15.43
2023-01-03T21:08:52.706Z,12.57
2023-01-03T21:11:21.543Z,19.63
2023-01-03T21:13:50.371Z,11.83
2023-01-03T21:16:34.444Z,13.57
2023-01-03T21:19:09.172Z,13.30
2023-01-03T21:21:37.942Z,13.57
2023-01-03T21:24:08.878Z,14.73
2023-01-03T21:26:37.911Z,8.93
2023-01-03T21:29:07.138Z,22.93
2023-01-03T21:31:36.865Z,12.43
2023-01-03T21:34:07.388Z,10.73
2023-01-03T21:36:37.519Z,14.50
2023-01-03T21:39:07.584Z,25.33
2023-01-03T21:41:57.519Z,15.03
2023-01-03T21:44:26.286Z,11.83
2023-01-03T21:46:54.971Z,12.87
2023-01-03T21:49:23.774Z,12.33
2023-01-03T21:51:52.548Z,17.17
2023-01-03T21:54:22.738Z,14.53
2023-01-03T21:56:51.479Z,14.50
2023-01-03T21:59:20.211Z,11.63
2023-01-03T22:02:06.439Z,12.10
2023-01-03T22:04:35.459Z,13.13
2023-01-03T22:07:04.694Z,16.70
2023-01-03T22:09:54.028Z,13.50
2023-01-03T22:12:23.007Z,22.47
2023-01-03T22:14:51.787Z,17.70
2023-01-03T22:17:20.480Z,15.23
2023-01-03T22:19:49.364Z,16.30
2023-01-03T22:22:18.267Z,14.30
2023-01-03T22:24:48.583Z,19.20
2023-01-03T22:27:18.317Z,14.50
2023-01-03T22:29:47.055Z,12.00
2023-01-03T22:32:15.796Z,15.07
2023-01-03T22:34:44.510Z,20.70
2023-01-03T22:37:13.234Z,13.53
2023-01-03T22:39:42.018Z,13.63
2023-01-03T22:42:17.657Z,12.80
2023-01-03T22:44:48.766Z,14.90
2023-01-03T22:47:17.991Z,18.50
2023-01-03T22:49:46.657Z,13.10
2023-01-03T22:52:15.334Z,16.77
2023-01-03T22:54:44.001Z,17.40
2023-01-03T22:57:14.235Z,13.30
2023-01-03T22:59:42.946Z,10.47
2023-01-03T23:02:11.949Z,24.83
2023-01-03T23:04:40.867Z,14.20
2023-01-03T23:07:10.088Z,16.30
2023-01-03T23:09:38.798Z,12.73
2023-01-03T23:12:25.304Z,11.97
2023-01-03T23:14:55.496Z,15.33
2023-01-03T23:17:41.581Z,19.23
2023-01-03T23:20:11.350Z,14.57
2023-01-03T23:22:40.131Z,15.90
2023-01-03T23:25:09.265Z,13.77
2023-01-03T23:27:37.987Z,20.27
2023-01-03T23:30:09.560Z,15.43
2023-01-03T23:32:38.282Z,21.47
2023-01-03T23:35:10.483Z,17.50
2023-01-03T23:37:39.525Z,18.50
2023-01-03T23:40:10.260Z,11.53
2023-01-03T23:42:39.041Z,14.77
2023-01-03T23:45:09.965Z,16.57
2023-01-03T23:47:38.719Z,12.97
2023-01-03T23:50:07.542Z,20.40
2023-01-03T23:52:36.261Z,18.53
2023-01-03T23:55:12.238Z,19.53
2023-01-03T23:57:44.322Z,17.07
